createdAt,value
2019-04-01T00:02:12.329Z,21.77
2019-04-01T00:04:41.218Z,24.10
2019-04-01T00:07:10.138Z,17.07
2019-04-01T00:09:39.196Z,19.23
2019-04-01T00:12:07.885Z,21.93
2019-04-01T00:14:36.872Z,18.47
2019-04-01T00:17:05.567Z,17.60
2019-04-01T00:19:34.531Z,14.97
2019-04-01T00:22:03.526Z,21.00
2019-04-01T00:24:32.525Z,22.13
2019-04-01T00:27:01.428Z,21.70
2019-04-01T00:29:30.350Z,25.37
2019-04-01T00:31:59.387Z,17.10
2019-04-01T00:34:28.413Z,19.87
2019-04-01T00:36:57.479Z,14.03
2019-04-01T00:39:26.179Z,17.00
2019-04-01T00:41:59.308Z,15.13
2019-04-01T00:44:28.432Z,14.30
2019-04-01T00:46:57.400Z,14.33
2019-04-01T00:49:27.440Z,20.03
2019-04-01T00:51:56.237Z,15.67
2019-04-01T00:54:25.228Z,19.27
2019-04-01T00:56:53.883Z,17.90
2019-04-01T00:59:23.053Z,15.47
2019-04-01T01:01:52.083Z,17.30
2019-04-01T01:04:20.992Z,16.20
2019-04-01T01:06:49.994Z,20.80
2019-04-01T01:09:18.714Z,21.00
2019-04-01T01:11:47.423Z,12.40
2019-04-01T01:14:16.227Z,15.07
2019-04-01T01:16:44.969Z,18.30
2019-04-01T01:19:13.690Z,15.07
2019-04-01T01:21:42.579Z,16.80
2019-04-01T01:24:11.614Z,17.33
2019-04-01T01:26:40.407Z,16.13
2019-04-01T01:29:09.572Z,14.83
2019-04-01T01:31:38.451Z,13.90
2019-04-01T01:34:07.344Z,17.17
2019-04-01T01:36:36.140Z,13.00
2019-04-01T01:39:05.911Z,16.47
2019-04-01T01:41:34.711Z,16.23
2019-04-01T01:44:03.841Z,16.40
2019-04-01T01:46:32.866Z,12.10
2019-04-01T01:49:01.992Z,22.87
2019-04-01T01:51:30.907Z,17.83
2019-04-01T01:53:59.892Z,21.43
2019-04-01T01:56:28.764Z,19.27
2019-04-01T01:58:57.545Z,19.63
2019-04-01T02:01:26.442Z,18.13
2019-04-01T02:03:55.321Z,20.17
2019-04-01T02:06:24.211Z,23.03
2019-04-01T02:08:53.236Z,19.93
2019-04-01T02:11:22.111Z,16.23
2019-04-01T02:13:50.988Z,18.50
2019-04-01T02:16:19.902Z,21.63
2019-04-01T02:18:48.752Z,19.30
2019-04-01T02:21:17.781Z,17.43
2019-04-01T02:23:46.873Z,23.73
2019-04-01T02:26:15.907Z,16.67
2019-04-01T02:28:45.048Z,20.90
2019-04-01T02:31:13.780Z,20.60
2019-04-01T02:33:42.809Z,20.67
2019-04-01T02:36:11.612Z,19.30
2019-04-01T02:38:40.416Z,17.83
2019-04-01T02:41:09.992Z,20.43
2019-04-01T02:43:38.981Z,16.67
2019-04-01T02:46:07.859Z,24.23
2019-04-01T02:48:36.746Z,17.53
2019-04-01T02:51:05.831Z,21.90
2019-04-01T02:53:34.829Z,19.93
2019-04-01T02:56:03.730Z,17.20
2019-04-01T02:58:32.719Z,14.67
2019-04-01T03:01:01.498Z,18.47
2019-04-01T03:03:30.496Z,18.33
2019-04-01T03:05:59.581Z,22.20
2019-04-01T03:08:28.636Z,26.77
2019-04-01T03:10:57.638Z,24.23
2019-04-01T03:13:26.732Z,16.47
2019-04-01T03:15:55.861Z,22.60
2019-04-01T03:18:24.745Z,26.20
2019-04-01T03:20:53.603Z,23.60
2019-04-01T03:23:22.331Z,21.43
2019-04-01T03:25:51.221Z,27.47
2019-04-01T03:28:20.235Z,20.23
2019-04-01T03:30:49.005Z,26.50
2019-04-01T03:33:17.992Z,22.80
2019-04-01T03:35:47.101Z,23.53
2019-04-01T03:38:16.152Z,26.60
2019-04-01T03:40:45.139Z,28.80
2019-04-01T03:43:14.048Z,21.93
2019-04-01T03:45:42.731Z,22.67
2019-04-01T03:48:11.527Z,17.10
2019-04-01T03:50:40.401Z,17.80
2019-04-01T03:53:09.176Z,19.30
2019-04-01T03:55:38.101Z,17.77
2019-04-01T03:58:07.054Z,15.47
2019-04-01T04:00:35.964Z,18.47
2019-04-01T04:03:04.935Z,16.03
2019-04-01T04:05:33.809Z,17.50
2019-04-01T04:08:02.628Z,23.00
2019-04-01T04:10:31.500Z,19.90
2019-04-01T04:13:00.381Z,14.10
2019-04-01T04:15:29.425Z,17.23
2019-04-01T04:17:58.424Z,14.43
2019-04-01T04:20:27.367Z,15.13
2019-04-01T04:22:56.348Z,16.87
2019-04-01T04:25:25.174Z,16.67
2019-04-01T04:27:54.346Z,16.70
2019-04-01T04:30:23.317Z,19.10
2019-04-01T04:32:52.121Z,15.67
2019-04-01T04:35:21.151Z,20.23
2019-04-01T04:37:50.111Z,20.70
2019-04-01T04:40:19.409Z,18.53
2019-04-01T04:42:48.170Z,19.97
2019-04-01T04:45:17.066Z,17.80
2019-04-01T04:47:45.804Z,25.27
2019-04-01T04:50:14.923Z,18.97
2019-04-01T04:52:43.943Z,26.67
2019-04-01T04:55:12.830Z,19.23
2019-04-01T04:57:41.718Z,20.40
2019-04-01T05:00:10.972Z,15.50
2019-04-01T05:02:39.999Z,17.37
2019-04-01T05:05:08.998Z,20.80
2019-04-01T05:07:37.872Z,23.93
2019-04-01T05:10:10.038Z,20.77
2019-04-01T05:12:39.132Z,25.53
2019-04-01T05:15:08.133Z,25.90
2019-04-01T05:17:36.857Z,22.73
2019-04-01T05:20:06.320Z,23.73
2019-04-01T05:22:36.015Z,23.40
2019-04-01T05:25:05.530Z,23.77
2019-04-01T05:27:37.461Z,29.33
2019-04-01T05:30:07.220Z,20.37
2019-04-01T05:32:37.804Z,31.17
2019-04-01T05:35:07.688Z,39.90
2019-04-01T05:37:36.573Z,27.33
2019-04-01T05:40:08.786Z,32.73
2019-04-01T05:42:37.604Z,30.90
2019-04-01T05:45:07.795Z,26.23
2019-04-01T05:47:38.269Z,22.07
2019-04-01T05:50:07.290Z,18.47
2019-04-01T05:52:35.976Z,22.43
2019-04-01T05:55:08.794Z,30.47
2019-04-01T05:57:36.834Z,18.80
2019-04-01T06:00:09.966Z,23.03
2019-04-01T06:02:39.115Z,21.23
2019-04-01T06:05:08.372Z,20.00
2019-04-01T06:07:37.347Z,19.40
2019-04-01T06:10:07.451Z,26.77
2019-04-01T06:12:36.638Z,19.13
2019-04-01T06:15:08.644Z,18.57
2019-04-01T06:17:37.458Z,23.90
2019-04-01T06:20:07.505Z,44.93
2019-04-01T06:22:36.207Z,21.97
2019-04-01T06:25:07.132Z,20.13
2019-04-01T06:27:35.949Z,37.03
2019-04-01T06:30:06.827Z,37.50
2019-04-01T06:32:35.701Z,25.03
2019-04-01T06:35:06.253Z,18.10
2019-04-01T06:37:35.260Z,21.97
2019-04-01T06:40:08.011Z,21.37
2019-04-01T06:42:36.909Z,15.43
2019-04-01T06:45:08.683Z,16.40
2019-04-01T06:47:37.573Z,23.87
2019-04-01T06:50:06.876Z,22.37
2019-04-01T06:52:35.547Z,38.90
2019-04-01T06:55:05.650Z,30.67
2019-04-01T06:57:34.620Z,15.67
2019-04-01T07:00:03.448Z,13.97
2019-04-01T07:02:32.310Z,14.80
2019-04-01T07:05:01.198Z,19.03
2019-04-01T07:07:29.939Z,12.60
2019-04-01T07:09:58.681Z,10.83
2019-04-01T07:12:27.661Z,11.87
2019-04-01T07:14:56.723Z,14.20
2019-04-01T07:17:25.575Z,12.67
2019-04-01T07:19:54.444Z,14.73
2019-04-01T07:22:23.271Z,15.18
2019-04-01T07:24:52.228Z,15.78
2019-04-01T07:27:21.339Z,33.55
2019-04-01T07:29:50.226Z,16.17
2019-04-01T07:32:18.952Z,35.52
2019-04-01T07:34:47.976Z,25.57
2019-04-01T07:37:16.833Z,29.95
2019-04-01T07:39:45.587Z,13.93
2019-04-01T07:42:14.601Z,22.73
2019-04-01T07:44:44.077Z,17.62
2019-04-01T07:47:12.865Z,13.62
2019-04-01T07:49:41.720Z,7.50
2019-04-01T07:52:10.467Z,6.62
2019-04-01T07:54:39.281Z,11.43
2019-04-01T07:57:08.195Z,7.10
2019-04-01T07:59:36.827Z,5.10
2019-04-01T08:02:05.703Z,7.85
2019-04-01T08:04:34.579Z,11.95
2019-04-01T08:07:03.433Z,8.68
2019-04-01T08:09:32.450Z,12.55
2019-04-01T08:12:01.237Z,9.50
2019-04-01T08:14:30.471Z,9.78
2019-04-01T08:16:59.286Z,5.50
2019-04-01T08:19:28.150Z,5.00
2019-04-01T08:21:58.024Z,7.47
2019-04-01T08:24:26.864Z,6.53
2019-04-01T08:26:55.674Z,11.97
2019-04-01T08:29:30.579Z,9.15
2019-04-01T08:31:54.916Z,8.25
2019-04-01T08:34:23.756Z,10.05
2019-04-01T08:36:52.493Z,5.67
2019-04-01T08:39:21.343Z,9.65
2019-04-01T08:41:50.263Z,6.37
2019-04-01T08:44:19.058Z,5.97
2019-04-01T08:46:47.888Z,6.20
2019-04-01T08:49:16.918Z,5.25
2019-04-01T08:51:46.064Z,6.40
2019-04-01T08:54:14.812Z,7.22
2019-04-01T08:56:43.681Z,8.73
2019-04-01T08:59:13.021Z,7.95
2019-04-01T09:01:41.730Z,8.93
2019-04-01T09:04:10.556Z,4.87
2019-04-01T09:06:39.390Z,16.85
2019-04-01T09:09:08.273Z,5.10
2019-04-01T09:11:38.618Z,5.85
2019-04-01T09:14:07.520Z,4.17
2019-04-01T09:16:36.619Z,3.95
2019-04-01T09:19:05.453Z,4.35
2019-04-01T09:21:34.256Z,4.58
2019-04-01T09:24:03.118Z,4.70
2019-04-01T09:26:31.924Z,4.20
2019-04-01T09:29:00.823Z,6.53
2019-04-01T09:31:29.596Z,4.87
2019-04-01T09:33:58.354Z,5.47
2019-04-01T09:36:27.220Z,7.70
2019-04-01T09:38:55.915Z,4.75
2019-04-01T09:41:24.665Z,4.72
2019-04-01T09:43:53.387Z,4.05
2019-04-01T09:46:22.040Z,8.00
2019-04-01T09:48:50.903Z,5.80
2019-04-01T09:51:19.732Z,3.95
2019-04-01T09:53:48.496Z,2.85
2019-04-01T09:56:17.358Z,6.67
2019-04-01T09:58:46.385Z,3.02
2019-04-01T10:01:15.184Z,3.72
2019-04-01T10:03:43.879Z,2.95
2019-04-01T10:06:12.608Z,5.72
2019-04-01T10:08:42.773Z,3.42
2019-04-01T10:11:12.805Z,2.22
2019-04-01T10:13:41.758Z,3.02
2019-04-01T10:16:10.693Z,3.75
2019-04-01T10:18:39.451Z,3.55
2019-04-01T10:21:08.227Z,12.13
2019-04-01T10:23:36.993Z,5.33
2019-04-01T10:26:05.828Z,4.28
2019-04-01T10:28:34.537Z,4.08
2019-04-01T10:31:03.431Z,6.73
2019-04-01T10:33:32.119Z,2.20
2019-04-01T10:36:00.803Z,2.90
2019-04-01T10:38:29.528Z,2.53
2019-04-01T10:40:58.387Z,3.13
2019-04-01T10:43:27.196Z,3.10
2019-04-01T10:45:55.969Z,3.70
2019-04-01T10:48:24.926Z,2.47
2019-04-01T10:50:53.802Z,3.03
2019-04-01T10:53:22.980Z,5.73
2019-04-01T10:55:52.076Z,5.07
2019-04-01T10:58:21.234Z,2.23
2019-04-01T11:00:50.403Z,2.70
2019-04-01T11:03:19.411Z,16.30
2019-04-01T11:05:48.431Z,2.80
2019-04-01T11:08:17.404Z,1.60
2019-04-01T11:10:46.302Z,1.70
2019-04-01T11:13:15.071Z,2.07
2019-04-01T11:15:43.745Z,2.60
2019-04-01T11:18:12.642Z,4.00
2019-04-01T11:20:41.610Z,6.70
2019-04-01T11:23:10.513Z,3.17
2019-04-01T11:25:39.503Z,5.20
2019-04-01T11:28:08.483Z,4.03
2019-04-01T11:30:37.531Z,3.13
2019-04-01T11:33:07.879Z,3.80
2019-04-01T11:35:36.911Z,7.57
2019-04-01T11:38:05.912Z,4.13
2019-04-01T11:40:37.040Z,5.30
2019-04-01T11:43:05.517Z,6.17
2019-04-01T11:45:34.517Z,2.63
2019-04-01T11:48:03.695Z,6.10
2019-04-01T11:50:32.726Z,8.70
2019-04-01T11:53:01.586Z,5.60
2019-04-01T11:55:30.605Z,9.93
2019-04-01T11:57:59.545Z,7.50
2019-04-01T12:00:28.589Z,6.27
2019-04-01T12:02:57.651Z,5.57
2019-04-01T12:05:26.338Z,5.17
2019-04-01T12:07:55.204Z,6.50
2019-04-01T12:10:23.914Z,6.07
2019-04-01T12:12:52.673Z,3.93
2019-04-01T12:15:21.518Z,2.47
2019-04-01T12:17:50.551Z,5.93
2019-04-01T12:20:19.451Z,6.23
2019-04-01T12:22:48.534Z,3.63
2019-04-01T12:25:17.430Z,4.43
2019-04-01T12:27:46.434Z,5.07
2019-04-01T12:30:15.389Z,37.87
2019-04-01T12:32:44.323Z,32.40
2019-04-01T12:35:13.317Z,25.60
2019-04-01T12:37:42.388Z,89.53
2019-04-01T12:40:11.785Z,17.63
2019-04-01T12:42:40.542Z,54.17
2019-04-01T12:45:10.607Z,12.37
2019-04-01T12:47:42.850Z,32.57
2019-04-01T12:50:11.012Z,193.30
2019-04-01T12:52:39.921Z,13.30
2019-04-01T12:55:09.010Z,4.67
2019-04-01T12:57:37.781Z,17.33
2019-04-01T13:00:11.608Z,47.67
2019-04-01T13:02:40.613Z,5.73
2019-04-01T13:05:09.698Z,18.27
2019-04-01T13:07:38.493Z,21.80
2019-04-01T13:10:08.697Z,8.33
2019-04-01T13:12:37.465Z,37.10
2019-04-01T13:15:06.256Z,6.13
2019-04-01T13:17:35.248Z,4.20
2019-04-01T13:20:05.275Z,6.53
2019-04-01T13:22:34.141Z,11.63
2019-04-01T13:25:05.652Z,50.70
2019-04-01T13:27:33.428Z,27.77
2019-04-01T13:30:02.365Z,12.30
2019-04-01T13:32:31.264Z,28.47
2019-04-01T13:35:00.231Z,13.03
2019-04-01T13:37:29.120Z,26.33
2019-04-01T13:39:58.031Z,21.83
2019-04-01T13:42:27.000Z,7.10
2019-04-01T13:44:56.006Z,16.47
2019-04-01T13:47:24.990Z,8.57
2019-04-01T13:49:53.966Z,10.27
2019-04-01T13:52:22.865Z,20.43
2019-04-01T13:54:51.974Z,4.20
2019-04-01T13:57:21.030Z,6.97
2019-04-01T13:59:51.660Z,5.37
2019-04-01T14:02:20.447Z,5.00
2019-04-01T14:04:49.758Z,7.57
2019-04-01T14:07:18.954Z,4.77
2019-04-01T14:09:48.078Z,8.63
2019-04-01T14:12:17.268Z,2.83
2019-04-01T14:14:46.887Z,6.30
2019-04-01T14:17:16.135Z,45.83
2019-04-01T14:19:45.128Z,2.67
2019-04-01T14:22:13.961Z,14.70
2019-04-01T14:24:42.870Z,6.47
2019-04-01T14:27:11.914Z,3.90
2019-04-01T14:29:40.787Z,3.10
2019-04-01T14:32:09.795Z,2.60
2019-04-01T14:34:38.623Z,5.13
2019-04-01T14:37:09.794Z,3.13
2019-04-01T14:39:38.086Z,9.27
2019-04-01T14:42:08.515Z,7.43
2019-04-01T14:44:37.185Z,8.87
2019-04-01T14:47:08.899Z,7.33
2019-04-01T14:49:36.431Z,12.90
2019-04-01T14:52:05.366Z,18.23
2019-04-01T14:54:34.388Z,12.43
2019-04-01T14:57:03.294Z,18.67
2019-04-01T14:59:32.149Z,51.37
2019-04-01T15:02:03.565Z,14.87
2019-04-01T15:04:31.422Z,11.30
2019-04-01T15:07:00.092Z,18.83
2019-04-01T15:09:28.843Z,6.53
2019-04-01T15:11:58.139Z,5.53
2019-04-01T15:14:26.846Z,6.43
2019-04-01T15:16:55.668Z,31.73
2019-04-01T15:19:24.338Z,15.33
2019-04-01T15:21:53.025Z,5.78
2019-04-01T15:24:21.741Z,6.80
2019-04-01T15:26:50.606Z,3.97
2019-04-01T15:29:19.816Z,5.07
2019-04-01T15:31:48.598Z,16.27
2019-04-01T15:34:17.351Z,25.13
2019-04-01T15:36:46.060Z,14.03
2019-04-01T15:39:15.582Z,16.37
2019-04-01T15:41:45.320Z,27.67
2019-04-01T15:44:14.228Z,40.43
2019-04-01T15:46:43.127Z,28.50
2019-04-01T15:49:11.859Z,37.80
2019-04-01T15:51:40.591Z,5.73
2019-04-01T15:54:09.343Z,8.93
2019-04-01T15:56:41.457Z,19.73
2019-04-01T15:59:08.347Z,10.33
2019-04-01T16:01:37.144Z,9.17
2019-04-01T16:04:06.001Z,16.90
2019-04-01T16:06:35.006Z,13.37
2019-04-01T16:09:05.764Z,19.90
2019-04-01T16:11:34.451Z,32.03
2019-04-01T16:14:03.349Z,57.17
2019-04-01T16:16:32.101Z,53.90
2019-04-01T16:19:00.958Z,41.70
2019-04-01T16:21:31.451Z,50.53
2019-04-01T16:24:00.296Z,31.50
2019-04-01T16:26:29.239Z,56.37
2019-04-01T16:28:58.009Z,18.27
2019-04-01T16:31:26.937Z,10.03
2019-04-01T16:33:55.743Z,17.17
2019-04-01T16:36:24.496Z,16.67
2019-04-01T16:38:53.535Z,32.10
2019-04-01T16:41:22.372Z,10.87
2019-04-01T16:43:51.345Z,21.13
2019-04-01T16:46:20.857Z,18.73
2019-04-01T16:48:49.672Z,26.43
2019-04-01T16:51:18.617Z,15.50
2019-04-01T16:53:47.467Z,21.90
2019-04-01T16:56:16.170Z,9.93
2019-04-01T16:58:44.910Z,8.83
2019-04-01T17:01:13.692Z,10.40
2019-04-01T17:03:42.400Z,9.10
2019-04-01T17:06:11.127Z,9.63
2019-04-01T17:08:40.053Z,5.67
2019-04-01T17:11:08.899Z,7.87
2019-04-01T17:13:37.606Z,5.90
2019-04-01T17:16:06.460Z,14.13
2019-04-01T17:18:35.992Z,12.23
2019-04-01T17:21:05.068Z,9.30
2019-04-01T17:23:34.266Z,22.13
2019-04-01T17:26:02.987Z,44.57
2019-04-01T17:28:31.649Z,82.70
2019-04-01T17:31:00.569Z,86.67
2019-04-01T17:33:29.250Z,42.90
2019-04-01T17:35:57.882Z,54.80
2019-04-01T17:38:26.877Z,63.70
2019-04-01T17:40:55.667Z,96.60
2019-04-01T17:43:24.339Z,64.20
2019-04-01T17:45:53.341Z,66.13
2019-04-01T17:48:22.291Z,54.93
2019-04-01T17:50:51.133Z,86.67
2019-04-01T17:53:20.294Z,118.37
2019-04-01T17:55:50.018Z,144.10
2019-04-01T17:58:18.866Z,115.43
2019-04-01T18:00:49.517Z,115.97
2019-04-01T18:03:18.339Z,103.87
2019-04-01T18:05:47.081Z,79.07
2019-04-01T18:08:15.839Z,57.77
2019-04-01T18:10:44.562Z,58.67
2019-04-01T18:13:13.215Z,53.53
2019-04-01T18:15:42.362Z,51.10
2019-04-01T18:18:11.163Z,48.30
2019-04-01T18:20:39.962Z,106.30
2019-04-01T18:23:08.805Z,135.93
2019-04-01T18:25:37.895Z,160.27
2019-04-01T18:28:06.621Z,151.77
2019-04-01T18:30:35.580Z,132.87
2019-04-01T18:33:04.519Z,126.90
2019-04-01T18:35:33.318Z,102.87
2019-04-01T18:38:02.276Z,87.30
2019-04-01T18:40:33.346Z,105.87
2019-04-01T18:43:01.858Z,129.57
2019-04-01T18:45:30.661Z,122.03
2019-04-01T18:47:59.648Z,78.83
2019-04-01T18:50:28.939Z,75.07
2019-04-01T18:52:58.115Z,57.33
2019-04-01T18:55:27.002Z,68.53
2019-04-01T18:57:56.480Z,63.83
2019-04-01T19:00:25.798Z,43.23
2019-04-01T19:02:55.721Z,36.40
2019-04-01T19:05:25.427Z,45.07
2019-04-01T19:07:54.547Z,51.17
2019-04-01T19:10:23.690Z,38.87
2019-04-01T19:13:05.031Z,28.13
2019-04-01T19:15:23.871Z,28.70
2019-04-01T19:17:53.697Z,23.13
2019-04-01T19:20:23.265Z,20.07
2019-04-01T19:22:53.699Z,18.10
2019-04-01T19:25:23.430Z,15.60
2019-04-01T19:27:52.550Z,18.00
2019-04-01T19:30:21.989Z,18.47
2019-04-01T19:32:50.879Z,18.43
2019-04-01T19:35:19.854Z,27.43
2019-04-01T19:37:48.955Z,36.23
2019-04-01T19:40:20.550Z,35.00
2019-04-01T19:42:48.623Z,36.53
2019-04-01T19:45:17.867Z,29.93
2019-04-01T19:47:46.818Z,25.73
2019-04-01T19:50:18.414Z,29.20
2019-04-01T19:52:46.493Z,20.73
2019-04-01T19:55:15.475Z,23.97
2019-04-01T19:57:44.352Z,26.77
2019-04-01T20:00:26.716Z,18.13
2019-04-01T20:02:45.456Z,24.53
2019-04-01T20:05:14.737Z,22.23
2019-04-01T20:07:44.304Z,26.57
2019-04-01T20:10:13.812Z,31.10
2019-04-01T20:12:42.897Z,27.27
2019-04-01T20:15:12.561Z,27.93
2019-04-01T20:17:42.132Z,29.57
2019-04-01T20:20:14.433Z,32.93
2019-04-01T20:22:42.086Z,50.90
2019-04-01T20:25:11.443Z,49.80
2019-04-01T20:27:40.637Z,23.47
2019-04-01T20:30:09.988Z,28.33
2019-04-01T20:32:39.009Z,21.57
2019-04-01T20:35:22.348Z,27.50
2019-04-01T20:37:40.035Z,30.13
2019-04-01T20:40:09.314Z,29.17
2019-04-01T20:42:38.194Z,33.10
2019-04-01T20:45:10.711Z,33.73
2019-04-01T20:47:39.220Z,35.17
2019-04-01T20:50:10.716Z,26.63
2019-04-01T20:52:39.805Z,31.40
2019-04-01T20:55:08.816Z,38.23
2019-04-01T20:57:37.851Z,28.27
2019-04-01T21:00:09.486Z,23.87
2019-04-01T21:02:40.645Z,27.50
2019-04-01T21:05:10.458Z,37.70
2019-04-01T21:07:39.285Z,31.50
2019-04-01T21:10:08.789Z,78.97
2019-04-01T21:12:37.888Z,38.00
2019-04-01T21:15:09.850Z,45.70
2019-04-01T21:17:38.927Z,54.17
2019-04-01T21:20:08.338Z,52.97
2019-04-01T21:22:37.381Z,49.63
2019-04-01T21:25:07.614Z,42.40
2019-04-01T21:27:39.840Z,39.77
2019-04-01T21:30:13.192Z,66.77
2019-04-01T21:32:42.688Z,41.27
2019-04-01T21:35:12.213Z,63.60
2019-04-01T21:37:42.946Z,44.87
2019-04-01T21:40:12.234Z,71.73
2019-04-01T21:42:43.132Z,56.30
2019-04-01T21:45:12.006Z,52.67
2019-04-01T21:47:41.207Z,72.83
2019-04-01T21:50:10.815Z,54.07
2019-04-01T21:52:39.814Z,36.17
2019-04-01T21:55:09.121Z,54.13
2019-04-01T21:57:38.306Z,51.70
2019-04-01T22:00:14.248Z,42.23
2019-04-01T22:02:44.063Z,46.07
2019-04-01T22:05:14.085Z,34.10
2019-04-01T22:07:43.047Z,41.10
2019-04-01T22:10:12.402Z,62.07
2019-04-01T22:12:41.494Z,49.77
2019-04-01T22:15:11.722Z,48.77
2019-04-01T22:17:40.846Z,37.50
2019-04-01T22:20:10.410Z,48.67
2019-04-01T22:22:39.766Z,37.43
2019-04-01T22:25:08.670Z,40.63
2019-04-01T22:27:39.267Z,30.90
2019-04-01T22:30:08.967Z,21.93
2019-04-01T22:32:37.856Z,20.77
2019-04-01T22:35:08.289Z,22.90
2019-04-01T22:37:38.006Z,34.03
2019-04-01T22:40:08.052Z,30.17
2019-04-01T22:42:37.481Z,21.40
2019-04-01T22:45:07.422Z,22.10
2019-04-01T22:47:36.305Z,24.40
2019-04-01T22:50:07.592Z,26.30
2019-04-01T22:52:37.165Z,22.80
2019-04-01T22:55:06.869Z,28.83
2019-04-01T22:57:35.805Z,16.63
2019-04-01T23:00:06.031Z,20.23
2019-04-01T23:02:34.847Z,22.63
2019-04-01T23:05:04.417Z,17.17
2019-04-01T23:07:33.603Z,18.83
2019-04-01T23:10:02.403Z,20.43
2019-04-01T23:12:31.060Z,19.57
2019-04-01T23:15:00.095Z,17.00
2019-04-01T23:17:29.080Z,16.83
2019-04-01T23:19:57.939Z,18.50
2019-04-01T23:22:26.929Z,18.50
2019-04-01T23:24:57.246Z,15.63
2019-04-01T23:27:26.449Z,15.40
2019-04-01T23:29:55.561Z,11.03
2019-04-01T23:32:24.531Z,12.73
2019-04-01T23:34:53.621Z,15.37
2019-04-01T23:37:22.779Z,17.87
2019-04-01T23:39:51.827Z,14.73
2019-04-01T23:42:20.823Z,15.17
2019-04-01T23:44:49.790Z,13.97
2019-04-01T23:47:18.501Z,15.40
2019-04-01T23:49:47.402Z,17.97
2019-04-01T23:52:16.128Z,14.70
2019-04-01T23:54:45.059Z,17.27
2019-04-01T23:57:13.914Z,18.60
2019-04-01T23:59:42.939Z,15.77
